sensor_id;sensor_type;location;lat;lon;timestamp;pressure;altitude;pressure_sealevel;temperature;humidity
11676;BME280;5894;42.768;23.404;2022-10-16T00:00:38;96304.19;;;11.14;100.00
11676;BME280;5894;42.768;23.404;2022-10-16T00:03:05;96303.22;;;11.10;100.00
11676;BME280;5894;42.768;23.404;2022-10-16T00:05:33;96303.22;;;11.10;100.00
11676;BME280;5894;42.768;23.404;2022-10-16T00:08:04;96309.28;;;11.10;100.00
11676;BME280;5894;42.768;23.404;2022-10-16T00:10:31;96246.34;;;10.61;100.00
11676;BME280;5894;42.768;23.404;2022-10-16T00:12:59;96316.22;;;11.01;100.00
11676;BME280;5894;42.768;23.404;2022-10-16T00:15:26;96319.75;;;10.96;100.00
11676;BME280;5894;42.768;23.404;2022-10-16T00:17:53;96319.81;;;10.91;100.00
11676;BME280;5894;42.768;23.404;2022-10-16T00:20:20;96323.22;;;10.92;100.00
11676;BME280;5894;42.768;23.404;2022-10-16T00:22:47;96313.03;;;10.85;100.00
11676;BME280;5894;42.768;23.404;2022-10-16T00:25:14;96325.94;;;10.87;100.00
11676;BME280;5894;42.768;23.404;2022-10-16T00:27:41;96325.00;;;10.78;100.00
11676;BME280;5894;42.768;23.404;2022-10-16T00:30:10;96316.63;;;10.71;100.00
11676;BME280;5894;42.768;23.404;2022-10-16T00:32:37;96320.56;;;10.73;100.00
11676;BME280;5894;42.768;23.404;2022-10-16T00:35:04;96328.84;;;10.66;100.00
11676;BME280;5894;42.768;23.404;2022-10-16T00:37:31;96330.19;;;10.64;100.00
11676;BME280;5894;42.768;23.404;2022-10-16T00:39:58;96332.59;;;10.60;100.00
11676;BME280;5894;42.768;23.404;2022-10-16T00:42:25;96327.38;;;10.55;100.00
11676;BME280;5894;42.768;23.404;2022-10-16T00:44:54;96326.88;;;10.53;100.00
11676;BME280;5894;42.768;23.404;2022-10-16T00:47:26;96326.59;;;10.55;100.00
11676;BME280;5894;42.768;23.404;2022-10-16T00:49:58;96241.56;;;9.97;100.00
11676;BME280;5894;42.768;23.404;2022-10-16T00:52:26;96329.78;;;10.52;100.00
11676;BME280;5894;42.768;23.404;2022-10-16T00:54:54;96335.84;;;10.52;100.00
11676;BME280;5894;42.768;23.404;2022-10-16T00:57:22;96327.16;;;10.52;100.00
11676;BME280;5894;42.768;23.404;2022-10-16T00:59:49;96331.66;;;10.51;100.00
11676;BME280;5894;42.768;23.404;2022-10-16T01:02:17;96333.84;;;10.44;100.00
11676;BME280;5894;42.768;23.404;2022-10-16T01:04:47;96330.19;;;10.40;100.00
11676;BME280;5894;42.768;23.404;2022-10-16T01:07:23;96335.81;;;10.34;100.00
11676;BME280;5894;42.768;23.404;2022-10-16T01:10:01;96340.56;;;10.32;100.00
11676;BME280;5894;42.768;23.404;2022-10-16T01:12:37;96339.56;;;10.27;100.00
11676;BME280;5894;42.768;23.404;2022-10-16T01:15:12;96259.03;;;9.64;100.00
11676;BME280;5894;42.768;23.404;2022-10-16T01:17:45;96338.06;;;10.16;100.00
11676;BME280;5894;42.768;23.404;2022-10-16T01:20:21;96323.38;;;10.10;100.00
11676;BME280;5894;42.768;23.404;2022-10-16T01:23:01;96324.38;;;10.14;100.00
11676;BME280;5894;42.768;23.404;2022-10-16T01:25:39;96323.63;;;10.09;100.00
11676;BME280;5894;42.768;23.404;2022-10-16T01:28:15;96326.53;;;10.07;100.00
11676;BME280;5894;42.768;23.404;2022-10-16T01:30:45;96330.03;;;10.03;100.00
11676;BME280;5894;42.768;23.404;2022-10-16T01:33:16;96328.22;;;9.98;100.00
11676;BME280;5894;42.768;23.404;2022-10-16T01:35:47;96320.88;;;9.95;100.00
11676;BME280;5894;42.768;23.404;2022-10-16T01:38:21;96334.84;;;9.96;100.00
11676;BME280;5894;42.768;23.404;2022-10-16T01:40:52;96316.81;;;9.79;100.00
11676;BME280;5894;42.768;23.404;2022-10-16T01:43:26;96344.03;;;9.98;100.00
11676;BME280;5894;42.768;23.404;2022-10-16T01:45:55;96343.56;;;9.91;100.00
11676;BME280;5894;42.768;23.404;2022-10-16T01:48:23;96351.25;;;9.87;100.00
11676;BME280;5894;42.768;23.404;2022-10-16T01:50:55;96332.34;;;9.80;100.00
11676;BME280;5894;42.768;23.404;2022-10-16T01:53:24;96347.78;;;9.92;100.00
11676;BME280;5894;42.768;23.404;2022-10-16T01:55:52;96351.75;;;9.89;100.00
11676;BME280;5894;42.768;23.404;2022-10-16T01:58:23;96313.75;;;9.67;100.00
11676;BME280;5894;42.768;23.404;2022-10-16T02:00:52;96340.34;;;9.70;100.00
11676;BME280;5894;42.768;23.404;2022-10-16T02:03:22;96355.81;;;9.77;100.00
11676;BME280;5894;42.768;23.404;2022-10-16T02:05:51;96363.16;;;9.80;100.00
11676;BME280;5894;42.768;23.404;2022-10-16T02:08:21;96247.91;;;9.04;100.00
11676;BME280;5894;42.768;23.404;2022-10-16T02:10:49;96362.44;;;9.74;100.00
11676;BME280;5894;42.768;23.404;2022-10-16T02:13:17;96360.88;;;9.68;100.00
11676;BME280;5894;42.768;23.404;2022-10-16T02:15:49;96369.34;;;9.65;100.00
11676;BME280;5894;42.768;23.404;2022-10-16T02:18:20;96367.47;;;9.66;100.00
11676;BME280;5894;42.768;23.404;2022-10-16T02:20:51;96370.16;;;9.61;100.00
11676;BME280;5894;42.768;23.404;2022-10-16T02:23:25;96370.97;;;9.61;100.00
11676;BME280;5894;42.768;23.404;2022-10-16T02:25:56;96375.72;;;9.59;100.00
11676;BME280;5894;42.768;23.404;2022-10-16T02:28:29;96378.63;;;9.57;100.00
11676;BME280;5894;42.768;23.404;2022-10-16T02:31:04;96382.31;;;9.56;100.00
11676;BME280;5894;42.768;23.404;2022-10-16T02:33:35;96373.88;;;9.60;100.00
11676;BME280;5894;42.768;23.404;2022-10-16T02:36:04;96372.56;;;9.57;100.00
11676;BME280;5894;42.768;23.404;2022-10-16T02:38:32;96371.28;;;9.54;100.00
11676;BME280;5894;42.768;23.404;2022-10-16T02:40:59;96373.06;;;9.59;100.00
11676;BME280;5894;42.768;23.404;2022-10-16T02:43:26;96375.72;;;9.59;100.00
11676;BME280;5894;42.768;23.404;2022-10-16T02:45:53;96375.25;;;9.52;100.00
11676;BME280;5894;42.768;23.404;2022-10-16T02:48:21;96367.63;;;9.45;100.00
11676;BME280;5894;42.768;23.404;2022-10-16T02:50:48;96382.09;;;9.48;100.00
11676;BME280;5894;42.768;23.404;2022-10-16T02:53:15;96392.16;;;9.41;100.00
11676;BME280;5894;42.768;23.404;2022-10-16T02:55:42;96383.00;;;9.33;100.00
11676;BME280;5894;42.768;23.404;2022-10-16T02:58:08;96385.06;;;9.41;100.00
11676;BME280;5894;42.768;23.404;2022-10-16T03:00:35;96383.47;;;9.40;100.00
11676;BME280;5894;42.768;23.404;2022-10-16T03:03:02;96387.22;;;9.34;100.00
11676;BME280;5894;42.768;23.404;2022-10-16T03:05:30;96379.09;;;9.26;100.00
11676;BME280;5894;42.768;23.404;2022-10-16T03:07:57;96392.22;;;9.31;100.00
11676;BME280;5894;42.768;23.404;2022-10-16T03:10:25;96379.09;;;9.26;100.00
11676;BME280;5894;42.768;23.404;2022-10-16T03:12:52;96395.66;;;9.31;100.00
11676;BME280;5894;42.768;23.404;2022-10-16T03:15:19;96394.31;;;9.34;100.00
11676;BME280;5894;42.768;23.404;2022-10-16T03:17:46;96399.41;;;9.20;100.00
11676;BME280;5894;42.768;23.404;2022-10-16T03:20:12;96399.94;;;9.17;100.00
11676;BME280;5894;42.768;23.404;2022-10-16T03:22:41;96404.41;;;9.16;100.00
11676;BME280;5894;42.768;23.404;2022-10-16T03:25:08;96408.88;;;9.16;100.00
11676;BME280;5894;42.768;23.404;2022-10-16T03:27:35;96387.72;;;8.87;100.00
11676;BME280;5894;42.768;23.404;2022-10-16T03:30:01;96407.13;;;8.96;100.00
11676;BME280;5894;42.768;23.404;2022-10-16T03:32:28;96406.59;;;8.99;100.00
11676;BME280;5894;42.768;23.404;2022-10-16T03:34:55;96395.84;;;8.91;100.00
11676;BME280;5894;42.768;23.404;2022-10-16T03:37:22;96409.28;;;8.89;100.00
11676;BME280;5894;42.768;23.404;2022-10-16T03:39:50;96398.50;;;8.91;100.00
11676;BME280;5894;42.768;23.404;2022-10-16T03:42:18;96398.22;;;8.87;100.00
11676;BME280;5894;42.768;23.404;2022-10-16T03:44:44;96354.69;;;8.61;100.00
11676;BME280;5894;42.768;23.404;2022-10-16T03:47:11;96396.91;;;8.90;100.00
11676;BME280;5894;42.768;23.404;2022-10-16T03:49:38;96393.50;;;8.89;100.00
11676;BME280;5894;42.768;23.404;2022-10-16T03:52:05;96396.38;;;8.88;100.00
11676;BME280;5894;42.768;23.404;2022-10-16T03:54:32;96394.03;;;8.86;100.00
11676;BME280;5894;42.768;23.404;2022-10-16T03:57:00;96400.09;;;8.81;100.00
11676;BME280;5894;42.768;23.404;2022-10-16T03:59:27;96401.16;;;8.80;100.00
11676;BME280;5894;42.768;23.404;2022-10-16T04:01:53;96407.47;;;8.74;100.00
11676;BME280;5894;42.768;23.404;2022-10-16T04:04:20;96399.84;;;8.73;100.00
11676;BME280;5894;42.768;23.404;2022-10-16T04:06:47;96398.53;;;8.75;100.00
11676;BME280;5894;42.768;23.404;2022-10-16T04:09:14;96408.03;;;8.71;100.00
11676;BME280;5894;42.768;23.404;2022-10-16T04:11:40;96392.56;;;8.60;100.00
11676;BME280;5894;42.768;23.404;2022-10-16T04:14:09;96404.09;;;8.64;100.00
11676;BME280;5894;42.768;23.404;2022-10-16T04:16:35;96398.31;;;8.62;100.00
11676;BME280;5894;42.768;23.404;2022-10-16T04:19:02;96405.66;;;8.65;100.00
11676;BME280;5894;42.768;23.404;2022-10-16T04:21:29;96409.09;;;8.70;100.00
11676;BME280;5894;42.768;23.404;2022-10-16T04:23:56;96413.56;;;8.70;100.00
11676;BME280;5894;42.768;23.404;2022-10-16T04:26:23;96414.09;;;8.67;100.00
11676;BME280;5894;42.768;23.404;2022-10-16T04:28:49;96415.94;;;8.56;100.00
11676;BME280;5894;42.768;23.404;2022-10-16T04:31:17;96417.00;;;8.60;100.00
11676;BME280;5894;42.768;23.404;2022-10-16T04:33:44;96410.16;;;8.59;100.00
11676;BME280;5894;42.768;23.404;2022-10-16T04:36:12;96418.31;;;8.58;100.00
11676;BME280;5894;42.768;23.404;2022-10-16T04:38:39;96370.81;;;8.14;100.00
11676;BME280;5894;42.768;23.404;2022-10-16T04:41:06;96425.97;;;8.49;100.00
11676;BME280;5894;42.768;23.404;2022-10-16T04:43:33;96425.97;;;8.49;100.00
11676;BME280;5894;42.768;23.404;2022-10-16T04:46:00;96429.66;;;8.48;100.00
11676;BME280;5894;42.768;23.404;2022-10-16T04:48:28;96430.66;;;8.52;100.00
11676;BME280;5894;42.768;23.404;2022-10-16T04:50:55;96435.16;;;8.57;100.00
11676;BME280;5894;42.768;23.404;2022-10-16T04:53:22;96434.63;;;8.44;100.00
11676;BME280;5894;42.768;23.404;2022-10-16T04:55:49;96445.16;;;8.50;100.00
11676;BME280;5894;42.768;23.404;2022-10-16T04:58:16;96442.78;;;8.43;100.00
11676;BME280;5894;42.768;23.404;2022-10-16T05:00:44;96445.94;;;8.45;100.00
11676;BME280;5894;42.768;23.404;2022-10-16T05:03:11;96438.84;;;8.51;100.00
11676;BME280;5894;42.768;23.404;2022-10-16T05:05:43;96447.50;;;8.41;100.00
11676;BME280;5894;42.768;23.404;2022-10-16T05:08:13;96462.22;;;8.42;100.00
11676;BME280;5894;42.768;23.404;2022-10-16T05:10:41;96448.06;;;8.33;100.00
11676;BME280;5894;42.768;23.404;2022-10-16T05:13:08;96428.31;;;8.20;100.00
11676;BME280;5894;42.768;23.404;2022-10-16T05:15:36;96454.91;;;8.39;100.00
11676;BME280;5894;42.768;23.404;2022-10-16T05:18:02;96450.16;;;8.41;100.00
11676;BME280;5894;42.768;23.404;2022-10-16T05:20:29;96459.09;;;8.40;100.00
11676;BME280;5894;42.768;23.404;2022-10-16T05:22:57;96459.34;;;8.54;100.00
11676;BME280;5894;42.768;23.404;2022-10-16T05:25:24;96458.28;;;8.44;100.00
11676;BME280;5894;42.768;23.404;2022-10-16T05:27:51;96441.47;;;8.25;100.00
11676;BME280;5894;42.768;23.404;2022-10-16T05:30:18;96432.03;;;8.29;100.00
11676;BME280;5894;42.768;23.404;2022-10-16T05:32:49;96456.72;;;8.43;100.00
11676;BME280;5894;42.768;23.404;2022-10-16T05:35:16;96458.00;;;8.31;100.00
11676;BME280;5894;42.768;23.404;2022-10-16T05:37:44;96455.94;;;8.48;100.00
11676;BME280;5894;42.768;23.404;2022-10-16T05:40:12;96459.91;;;8.40;100.00
11676;BME280;5894;42.768;23.404;2022-10-16T05:42:39;96469.88;;;8.33;100.00
11676;BME280;5894;42.768;23.404;2022-10-16T05:45:08;96416.53;;;7.97;100.00
11676;BME280;5894;42.768;23.404;2022-10-16T05:47:35;96477.50;;;8.45;100.00
11676;BME280;5894;42.768;23.404;2022-10-16T05:50:03;96479.34;;;8.50;100.00
11676;BME280;5894;42.768;23.404;2022-10-16T05:52:30;96479.31;;;8.55;100.00
11676;BME280;5894;42.768;23.404;2022-10-16T05:54:57;96483.22;;;8.62;100.00
11676;BME280;5894;42.768;23.404;2022-10-16T05:57:25;96481.66;;;8.66;100.00
11676;BME280;5894;42.768;23.404;2022-10-16T05:59:52;96486.38;;;8.74;100.00
11676;BME280;5894;42.768;23.404;2022-10-16T06:02:19;96434.63;;;8.44;100.00
11676;BME280;5894;42.768;23.404;2022-10-16T06:04:46;96500.31;;;8.80;100.00
11676;BME280;5894;42.768;23.404;2022-10-16T06:07:13;96500.31;;;8.80;100.00
11676;BME280;5894;42.768;23.404;2022-10-16T06:09:39;96480.09;;;8.65;100.00
11676;BME280;5894;42.768;23.404;2022-10-16T06:12:06;96507.13;;;8.91;100.00
11676;BME280;5894;42.768;23.404;2022-10-16T06:14:34;96514.47;;;8.94;100.00
11676;BME280;5894;42.768;23.404;2022-10-16T06:17:01;96513.19;;;8.92;100.00
11676;BME280;5894;42.768;23.404;2022-10-16T06:19:28;96512.84;;;9.03;100.00
11676;BME280;5894;42.768;23.404;2022-10-16T06:21:55;96475.56;;;8.86;100.00
11676;BME280;5894;42.768;23.404;2022-10-16T06:24:23;96518.63;;;9.15;100.00
11676;BME280;5894;42.768;23.404;2022-10-16T06:26:50;96518.38;;;9.07;100.00
11676;BME280;5894;42.768;23.404;2022-10-16T06:29:17;96522.31;;;9.14;100.00
11676;BME280;5894;42.768;23.404;2022-10-16T06:31:45;96526.50;;;9.20;100.00
11676;BME280;5894;42.768;23.404;2022-10-16T06:34:12;96521.78;;;9.17;100.00
11676;BME280;5894;42.768;23.404;2022-10-16T06:36:39;96532.78;;;9.30;100.00
11676;BME280;5894;42.768;23.404;2022-10-16T06:39:06;96532.75;;;9.35;100.00
11676;BME280;5894;42.768;23.404;2022-10-16T06:41:33;96529.06;;;9.36;100.00
11676;BME280;5894;42.768;23.404;2022-10-16T06:44:14;96536.94;;;9.46;100.00
11676;BME280;5894;42.768;23.404;2022-10-16T06:46:40;96527.72;;;9.48;100.00
11676;BME280;5894;42.768;23.404;2022-10-16T06:49:09;96538.19;;;9.58;100.00
11676;BME280;5894;42.768;23.404;2022-10-16T06:51:36;96484.38;;;9.26;100.00
11676;BME280;5894;42.768;23.404;2022-10-16T06:54:06;96538.72;;;9.55;100.00
11676;BME280;5894;42.768;23.404;2022-10-16T06:56:33;96537.66;;;9.56;100.00
11676;BME280;5894;42.768;23.404;2022-10-16T06:59:01;96536.34;;;9.59;100.00
11676;BME280;5894;42.768;23.404;2022-10-16T07:01:28;96542.09;;;9.71;100.00
11676;BME280;5894;42.768;23.404;2022-10-16T07:03:55;96464.88;;;9.27;100.00
11676;BME280;5894;42.768;23.404;2022-10-16T07:06:25;96495.84;;;9.45;100.00
11676;BME280;5894;42.768;23.404;2022-10-16T07:08:52;96503.72;;;9.55;100.00
11676;BME280;5894;42.768;23.404;2022-10-16T07:11:22;96555.41;;;9.90;100.00
11676;BME280;5894;42.768;23.404;2022-10-16T07:13:50;96554.34;;;9.96;100.00
11676;BME280;5894;42.768;23.404;2022-10-16T07:16:20;96525.44;;;9.81;100.00
11676;BME280;5894;42.768;23.404;2022-10-16T07:18:47;96552.44;;;10.07;100.00
11676;BME280;5894;42.768;23.404;2022-10-16T07:21:17;96549.81;;;10.07;100.00
11676;BME280;5894;42.768;23.404;2022-10-16T07:23:50;96551.34;;;10.08;100.00
11676;BME280;5894;42.768;23.404;2022-10-16T07:26:16;96555.25;;;10.20;100.00
11676;BME280;5894;42.768;23.404;2022-10-16T07:28:44;96565.81;;;10.20;100.00
11676;BME280;5894;42.768;23.404;2022-10-16T07:31:11;96558.66;;;10.26;100.00
11676;BME280;5894;42.768;23.404;2022-10-16T07:33:41;96557.56;;;10.32;100.00
11676;BME280;5894;42.768;23.404;2022-10-16T07:36:10;96553.84;;;10.33;100.00
11676;BME280;5894;42.768;23.404;2022-10-16T07:38:37;96516.56;;;10.11;100.00
11676;BME280;5894;42.768;23.404;2022-10-16T07:41:09;96556.16;;;10.45;100.00
11676;BME280;5894;42.768;23.404;2022-10-16T07:43:36;96518.53;;;10.34;100.00
11676;BME280;5894;42.768;23.404;2022-10-16T07:46:03;96544.72;;;10.54;100.00
11676;BME280;5894;42.768;23.404;2022-10-16T07:48:32;96549.41;;;10.62;100.00
11676;BME280;5894;42.768;23.404;2022-10-16T07:51:01;96549.03;;;10.74;100.00
11676;BME280;5894;42.768;23.404;2022-10-16T07:53:28;96547.13;;;10.80;100.00
11676;BME280;5894;42.768;23.404;2022-10-16T07:55:57;96553.41;;;10.89;100.00
11676;BME280;5894;42.768;23.404;2022-10-16T07:58:26;96524.75;;;10.77;100.00
11676;BME280;5894;42.768;23.404;2022-10-16T08:00:54;96543.56;;;10.94;100.00
11676;BME280;5894;42.768;23.404;2022-10-16T08:03:21;96555.50;;;11.16;100.00
11676;BME280;5894;42.768;23.404;2022-10-16T08:05:48;96560.44;;;11.22;100.00
11676;BME280;5894;42.768;23.404;2022-10-16T08:08:16;96560.66;;;11.26;100.00
11676;BME280;5894;42.768;23.404;2022-10-16T08:10:43;96556.56;;;11.38;100.00
11676;BME280;5894;42.768;23.404;2022-10-16T08:13:10;96551.44;;;11.47;100.00
11676;BME280;5894;42.768;23.404;2022-10-16T08:15:41;96549.75;;;11.56;100.00
11676;BME280;5894;42.768;23.404;2022-10-16T08:18:09;96549.97;;;11.60;100.00
11676;BME280;5894;42.768;23.404;2022-10-16T08:20:36;96546.69;;;11.68;100.00
11676;BME280;5894;42.768;23.404;2022-10-16T08:23:03;96550.31;;;11.77;100.00
11676;BME280;5894;42.768;23.404;2022-10-16T08:25:30;96529.22;;;11.72;100.00
11676;BME280;5894;42.768;23.404;2022-10-16T08:27:57;96543.47;;;11.95;100.00
11676;BME280;5894;42.768;23.404;2022-10-16T08:30:24;96555.13;;;12.12;100.00
11676;BME280;5894;42.768;23.404;2022-10-16T08:32:52;96540.75;;;12.19;100.00
11676;BME280;5894;42.768;23.404;2022-10-16T08:35:19;96541.94;;;12.26;100.00
11676;BME280;5894;42.768;23.404;2022-10-16T08:37:46;96546.09;;;12.32;100.00
11676;BME280;5894;42.768;23.404;2022-10-16T08:40:17;96548.38;;;12.39;100.00
11676;BME280;5894;42.768;23.404;2022-10-16T08:43:05;96545.28;;;12.50;100.00
11676;BME280;5894;42.768;23.404;2022-10-16T08:45:48;96542.97;;;12.63;100.00
11676;BME280;5894;42.768;23.404;2022-10-16T08:48:26;96555.47;;;12.76;100.00
11676;BME280;5894;42.768;23.404;2022-10-16T08:50:54;96554.22;;;12.87;100.00
11676;BME280;5894;42.768;23.404;2022-10-16T08:53:24;96551.47;;;12.92;100.00
11676;BME280;5894;42.768;23.404;2022-10-16T08:55:53;96543.63;;;12.87;100.00
11676;BME280;5894;42.768;23.404;2022-10-16T08:58:22;96546.09;;;12.97;100.00
11676;BME280;5894;42.768;23.404;2022-10-16T09:00:53;96555.22;;;13.05;100.00
11676;BME280;5894;42.768;23.404;2022-10-16T09:03:43;96548.25;;;13.09;100.00
11676;BME280;5894;42.768;23.404;2022-10-16T09:06:39;96546.66;;;13.27;100.00
11676;BME280;5894;42.768;23.404;2022-10-16T09:09:31;96550.88;;;13.28;100.00
11676;BME280;5894;42.768;23.404;2022-10-16T09:12:05;96549.09;;;13.37;100.00
11676;BME280;5894;42.768;23.404;2022-10-16T09:14:43;96546.63;;;13.40;100.00
11676;BME280;5894;42.768;23.404;2022-10-16T09:17:25;96541.03;;;13.42;100.00
11676;BME280;5894;42.768;23.404;2022-10-16T09:20:00;96543.47;;;13.52;100.00
11676;BME280;5894;42.768;23.404;2022-10-16T09:22:31;96541.13;;;13.64;100.00
11676;BME280;5894;42.768;23.404;2022-10-16T09:25:00;96553.09;;;13.75;100.00
11676;BME280;5894;42.768;23.404;2022-10-16T09:27:37;96550.22;;;13.85;99.18
11676;BME280;5894;42.768;23.404;2022-10-16T09:30:11;96550.72;;;13.87;97.91
11676;BME280;5894;42.768;23.404;2022-10-16T09:32:38;96552.47;;;13.92;98.65
11676;BME280;5894;42.768;23.404;2022-10-16T09:35:11;96551.16;;;14.03;98.58
11676;BME280;5894;42.768;23.404;2022-10-16T09:37:42;96546.53;;;14.09;95.95
11676;BME280;5894;42.768;23.404;2022-10-16T09:40:24;96546.06;;;14.07;97.89
11676;BME280;5894;42.768;23.404;2022-10-16T09:42:56;96541.72;;;14.11;97.42
11676;BME280;5894;42.768;23.404;2022-10-16T09:45:24;96544.16;;;14.21;99.45
11676;BME280;5894;42.768;23.404;2022-10-16T09:47:51;96534.63;;;14.20;99.95
11676;BME280;5894;42.768;23.404;2022-10-16T09:50:24;96537.94;;;14.25;100.00
11676;BME280;5894;42.768;23.404;2022-10-16T09:53:03;96537.09;;;14.39;97.19
11676;BME280;5894;42.768;23.404;2022-10-16T09:55:30;96523.16;;;14.33;98.18
11676;BME280;5894;42.768;23.404;2022-10-16T09:57:57;96533.16;;;14.50;94.06
11676;BME280;5894;42.768;23.404;2022-10-16T10:00:24;96535.50;;;14.51;95.74
11676;BME280;5894;42.768;23.404;2022-10-16T10:02:51;96489.38;;;14.25;98.27
11676;BME280;5894;42.768;23.404;2022-10-16T10:05:25;96525.53;;;14.57;96.41
11676;BME280;5894;42.768;23.404;2022-10-16T10:07:55;96524.34;;;14.63;94.67
11676;BME280;5894;42.768;23.404;2022-10-16T10:10:24;96531.53;;;14.62;94.26
11676;BME280;5894;42.768;23.404;2022-10-16T10:12:52;96522.81;;;14.71;95.70
11676;BME280;5894;42.768;23.404;2022-10-16T10:15:19;96518.63;;;14.78;95.33
11676;BME280;5894;42.768;23.404;2022-10-16T10:17:50;96521.97;;;14.84;94.05
11676;BME280;5894;42.768;23.404;2022-10-16T10:20:27;96524.03;;;14.95;95.20
11676;BME280;5894;42.768;23.404;2022-10-16T10:22:55;96517.34;;;15.06;92.24
11676;BME280;5894;42.768;23.404;2022-10-16T10:28:29;96507.63;;;15.33;94.10
11676;BME280;5894;42.768;23.404;2022-10-16T10:31:05;96498.88;;;15.41;93.50
11676;BME280;5894;42.768;23.404;2022-10-16T10:33:41;96494.06;;;15.52;94.54
11676;BME280;5894;42.768;23.404;2022-10-16T10:36:25;96500.53;;;15.68;93.26
11676;BME280;5894;42.768;23.404;2022-10-16T10:38:58;96500.88;;;15.75;91.40
11676;BME280;5894;42.768;23.404;2022-10-16T10:44:30;96483.22;;;15.88;89.43
11676;BME280;5894;42.768;23.404;2022-10-16T10:47:05;96492.91;;;16.01;88.76
11676;BME280;5894;42.768;23.404;2022-10-16T10:49:48;96488.53;;;16.13;87.20
11676;BME280;5894;42.768;23.404;2022-10-16T10:52:34;96482.56;;;16.25;85.45
11676;BME280;5894;42.768;23.404;2022-10-16T10:55:13;96487.25;;;16.37;85.84
11676;BME280;5894;42.768;23.404;2022-10-16T10:57:59;96489.28;;;16.40;81.99
11676;BME280;5894;42.768;23.404;2022-10-16T11:00:42;96484.56;;;16.45;83.38
11676;BME280;5894;42.768;23.404;2022-10-16T11:03:24;96484.09;;;16.52;81.66
11676;BME280;5894;42.768;23.404;2022-10-16T11:05:56;96476.41;;;16.59;82.46
11676;BME280;5894;42.768;23.404;2022-10-16T11:08:31;96471.41;;;16.66;80.30
11676;BME280;5894;42.768;23.404;2022-10-16T11:11:02;96471.56;;;16.70;81.31
11676;BME280;5894;42.768;23.404;2022-10-16T11:13:33;96471.06;;;16.76;81.31
11676;BME280;5894;42.768;23.404;2022-10-16T11:16:07;96461.97;;;16.77;82.53
11676;BME280;5894;42.768;23.404;2022-10-16T11:18:46;96471.66;;;16.82;81.48
11676;BME280;5894;42.768;23.404;2022-10-16T11:21:19;96461.00;;;16.82;78.86
11676;BME280;5894;42.768;23.404;2022-10-16T11:23:53;96459.28;;;16.86;77.40
11676;BME280;5894;42.768;23.404;2022-10-16T11:26:24;96461.78;;;16.91;74.30
11676;BME280;5894;42.768;23.404;2022-10-16T11:28:54;96460.75;;;17.04;74.41
11676;BME280;5894;42.768;23.404;2022-10-16T11:31:28;96459.19;;;17.12;74.93
11676;BME280;5894;42.768;23.404;2022-10-16T11:34:02;96460.75;;;17.13;70.18
11676;BME280;5894;42.768;23.404;2022-10-16T11:36:36;96461.34;;;17.18;69.33
11676;BME280;5894;42.768;23.404;2022-10-16T11:39:16;96425.00;;;17.05;72.47
11676;BME280;5894;42.768;23.404;2022-10-16T11:41:48;96459.09;;;17.29;69.09
11676;BME280;5894;42.768;23.404;2022-10-16T11:44:36;96463.78;;;17.32;68.21
11676;BME280;5894;42.768;23.404;2022-10-16T11:47:13;96474.56;;;17.36;64.47
11676;BME280;5894;42.768;23.404;2022-10-16T11:49:44;96464.38;;;17.38;64.67
11676;BME280;5894;42.768;23.404;2022-10-16T11:52:17;96465.56;;;17.49;58.82
11676;BME280;5894;42.768;23.404;2022-10-16T11:54:51;96461.47;;;17.51;57.93
11676;BME280;5894;42.768;23.404;2022-10-16T11:57:22;96461.09;;;17.61;60.66
11676;BME280;5894;42.768;23.404;2022-10-16T11:59:54;96457.34;;;17.63;57.70
11676;BME280;5894;42.768;23.404;2022-10-16T12:02:40;96463.94;;;17.56;57.67
11676;BME280;5894;42.768;23.404;2022-10-16T12:05:20;96455.03;;;17.52;55.87
11676;BME280;5894;42.768;23.404;2022-10-16T12:07:57;96465.19;;;17.59;54.14
11676;BME280;5894;42.768;23.404;2022-10-16T12:10:30;96454.03;;;17.57;53.61
11676;BME280;5894;42.768;23.404;2022-10-16T12:13:02;96450.59;;;17.56;54.14
11676;BME280;5894;42.768;23.404;2022-10-16T12:15:31;96453.72;;;17.58;53.70
11676;BME280;5894;42.768;23.404;2022-10-16T12:17:59;96452.47;;;17.65;53.07
11676;BME280;5894;42.768;23.404;2022-10-16T12:20:28;96410.25;;;17.37;51.96
11676;BME280;5894;42.768;23.404;2022-10-16T12:23:00;96463.28;;;17.59;54.04
11676;BME280;5894;42.768;23.404;2022-10-16T12:25:59;96445.72;;;17.58;55.67
11676;BME280;5894;42.768;23.404;2022-10-16T12:28:29;96456.69;;;17.66;55.27
11676;BME280;5894;42.768;23.404;2022-10-16T12:30:58;96451.81;;;17.68;52.25
11676;BME280;5894;42.768;23.404;2022-10-16T12:33:27;96447.06;;;17.73;52.31
11676;BME280;5894;42.768;23.404;2022-10-16T12:35:55;96456.56;;;17.83;50.94
11676;BME280;5894;42.768;23.404;2022-10-16T12:38:49;96459.81;;;17.88;50.17
11676;BME280;5894;42.768;23.404;2022-10-16T12:41:33;96450.25;;;17.87;50.13
11676;BME280;5894;42.768;23.404;2022-10-16T12:44:01;96459.34;;;17.86;48.29
11676;BME280;5894;42.768;23.404;2022-10-16T12:46:37;96454.22;;;17.81;48.86
11676;BME280;5894;42.768;23.404;2022-10-16T12:49:19;96422.81;;;17.57;48.27
11676;BME280;5894;42.768;23.404;2022-10-16T12:51:47;96453.91;;;17.83;48.22
11676;BME280;5894;42.768;23.404;2022-10-16T12:54:17;96458.78;;;17.81;47.72
11676;BME280;5894;42.768;23.404;2022-10-16T12:56:54;96468.94;;;17.87;47.73
11676;BME280;5894;42.768;23.404;2022-10-16T12:59:34;96462.69;;;17.83;48.02
11676;BME280;5894;42.768;23.404;2022-10-16T13:02:35;96450.00;;;17.80;48.52
11676;BME280;5894;42.768;23.404;2022-10-16T13:05:22;96460.03;;;17.83;48.43
11676;BME280;5894;42.768;23.404;2022-10-16T13:07:59;96438.47;;;17.68;48.57
11676;BME280;5894;42.768;23.404;2022-10-16T13:10:34;96476.50;;;17.85;46.25
11676;BME280;5894;42.768;23.404;2022-10-16T13:13:35;96469.25;;;17.86;46.88
11676;BME280;5894;42.768;23.404;2022-10-16T13:16:14;96473.84;;;17.85;46.76
11676;BME280;5894;42.768;23.404;2022-10-16T13:18:52;96470.94;;;17.90;47.76
11676;BME280;5894;42.768;23.404;2022-10-16T13:21:32;96470.09;;;17.98;47.49